Main page
METAR-TAF:

METAR-TAF

Airports :

Carlisle Lake District Airport

Carlisle, England

latitude: 54-56-15N, longitude: 002-48-33W, elevation: 57 m

Current weather observation

The report was made 11 hours and 45 minutes ago, at 16:50 UTC
Wind 16 kt from the Southwest
Temperature 17°C
Humidity 94%
Pressure 1008 hPa
Visibility: 3000 m
Scattered clouds at a height of 500 ft
Broken clouds at a height of 1400 ft
light rain, drizzle, mist

METAR: EGNC 151650Z 23016KT 3000 -RADZ BR SCT005 BKN014 17/16 Q1008

Time: 05:35 (04:35 UTC)

Forecast

The report was made 14 hours and 33 minutes ago, at 14:02 UTC
Forecast valid from 15 at 15 UTC to 15 at 17 UTC
Wind 14 kt from the Southwest
Visibility 10 km or more
Broken clouds at a height of 3000 ft
Probability 40% :
Temporary
from 15 at 15 UTC to 15 at 17 UTC
Wind 17 kt from the West/Southwest with gusts up to 27 kt
Visibility: 7000 m
Broken clouds at a height of 1400 ft
rain

TAF: EGNC 151402Z 1515/1517 23014KT 9999 BKN030 PROB40 TEMPO 1515/1517 24017G27KT 7000 RA BKN014

Weather observations and forecasts of more than 4000 airports (METAR and TAF reports).

The available stations are represented by yellow and red dots on the map.

Hover mouse over dot to see the name of the station.

Then click to see weather observations and forecasts.

To change the map : click on the green buttons with a black cross to zoom in, on the green button with a dash to zoom out, or on the green arrows for adjacent maps.


METAR-TAF: